Time;durP1;ratioP1;P1;durP2;ratioP2;P2;SDS_P1;SDS_P2;PMS_P1;PMS_P2;Temp;Humidity;BMP_temperature;BMP_pressure;BME280_temperature;BME280_humidity;BME280_pressure;Samples;Min_cycle;Max_cycle;Signal;HPM_P1;HPM_P2
2021/05/27 00:00:41;;;;;;;10.75;4.78;;;;;;;24.71;31.54;101607.75;5072771;28;20028;-76
2021/05/27 00:03:07;;;;;;;11.27;5.32;;;;;;;24.62;31.57;101612.84;5072618;28;20029;-77
2021/05/27 00:05:33;;;;;;;7.10;4.32;;;;;;;24.61;31.57;101609.25;5072708;28;20448;-76
2021/05/27 00:07:59;;;;;;;5.72;4.38;;;;;;;24.53;31.83;101604.00;5072691;28;20433;-77
2021/05/27 00:10:28;;;;;;;7.38;4.68;;;;;;;24.42;31.78;101603.13;5072765;28;20028;-76
2021/05/27 00:12:54;;;;;;;7.37;4.83;;;;;;;24.32;31.86;101605.44;5072698;28;20032;-76
2021/05/27 00:15:23;;;;;;;10.20;5.25;;;;;;;24.16;31.97;101618.03;5072768;28;20078;-76
2021/05/27 00:17:49;;;;;;;7.43;4.43;;;;;;;24.11;31.96;101613.59;5072608;28;20032;-76
2021/05/27 00:20:15;;;;;;;6.95;4.35;;;;;;;24.09;32.03;101613.16;5072630;28;20361;-76
2021/05/27 00:22:40;;;;;;;6.20;3.50;;;;;;;24.08;32.11;101620.75;5072553;28;20025;-76
2021/05/27 00:25:08;;;;;;;8.75;4.35;;;;;;;24.04;32.15;101619.91;5071816;28;20504;-76
2021/05/27 00:27:34;;;;;;;10.45;4.80;;;;;;;23.96;32.03;101618.25;5072351;28;20128;-76
2021/05/27 00:30:00;;;;;;;8.05;3.97;;;;;;;23.87;32.23;101625.31;5072510;28;20107;-76
2021/05/27 00:32:26;;;;;;;5.13;4.05;;;;;;;23.82;32.15;101622.88;5072440;28;20016;-76
2021/05/27 00:34:51;;;;;;;7.00;4.45;;;;;;;23.65;32.34;101608.31;5072490;28;20024;-76
2021/05/27 00:37:18;;;;;;;7.22;4.05;;;;;;;23.57;32.42;101609.41;5054502;28;20391;-76
2021/05/27 00:39:43;;;;;;;7.28;3.97;;;;;;;23.68;32.21;101615.16;5072431;28;20425;-76
2021/05/27 00:42:09;;;;;;;5.65;3.80;;;;;;;23.62;32.21;101613.88;5072411;28;20077;-76
2021/05/27 00:44:35;;;;;;;4.88;3.22;;;;;;;23.58;32.39;101616.59;5072163;28;20024;-76
2021/05/27 00:47:06;;;;;;;6.93;3.70;;;;;;;23.46;32.32;101612.06;5072234;28;20160;-79
2021/05/27 00:49:33;;;;;;;7.45;3.80;;;;;;;23.42;32.48;101622.38;5072340;28;20024;-76
2021/05/27 00:51:58;;;;;;;10.52;3.50;;;;;;;23.37;32.53;101628.31;5072319;28;20029;-75
2021/05/27 00:54:24;;;;;;;8.55;4.05;;;;;;;23.31;32.52;101627.03;5072294;28;20364;-80
2021/05/27 00:56:52;;;;;;;6.03;3.25;;;;;;;23.19;32.70;101633.63;5072278;28;20028;-76
2021/05/27 00:59:18;;;;;;;6.72;3.47;;;;;;;23.21;32.56;101641.63;5072222;28;20025;-76
2021/05/27 01:01:45;;;;;;;6.43;3.63;;;;;;;23.16;32.78;101639.16;5072170;28;20025;-76
2021/05/27 01:04:11;;;;;;;7.32;3.75;;;;;;;23.14;32.84;101642.34;5072152;28;20063;-75
2021/05/27 01:06:37;;;;;;;6.05;3.60;;;;;;;23.16;32.55;101641.97;5072035;28;20064;-76
2021/05/27 01:09:04;;;;;;;5.88;3.63;;;;;;;23.07;32.71;101645.03;5072110;28;20360;-78
2021/05/27 01:11:30;;;;;;;7.85;4.45;;;;;;;23.09;32.58;101645.44;5072061;28;20433;-78
2021/05/27 01:13:56;;;;;;;5.93;3.50;;;;;;;23.08;32.65;101646.63;5072153;28;20029;-76
2021/05/27 01:16:22;;;;;;;6.43;3.78;;;;;;;23.00;32.72;101644.91;5072088;28;20435;-76
2021/05/27 01:18:49;;;;;;;7.22;3.75;;;;;;;22.94;32.71;101647.22;5053986;28;20112;-75
2021/05/27 01:21:15;;;;;;;5.65;3.47;;;;;;;22.89;32.98;101646.72;5072025;28;20032;-76
2021/05/27 01:23:41;;;;;;;5.00;3.13;;;;;;;22.85;32.72;101645.84;5071973;28;20021;-76
2021/05/27 01:26:09;;;;;;;7.68;3.40;;;;;;;22.80;32.85;101638.59;5072098;28;20124;-79
2021/05/27 01:28:37;;;;;;;6.88;4.18;;;;;;;22.82;32.75;101641.84;5050203;28;20049;-76
2021/05/27 01:31:05;;;;;;;7.75;3.50;;;;;;;22.81;32.82;101636.63;5051941;28;20056;-78
2021/05/27 01:33:31;;;;;;;6.10;2.53;;;;;;;22.76;32.72;101631.41;5051863;28;20036;-76
2021/05/27 01:35:59;;;;;;;6.78;2.72;;;;;;;22.77;32.50;101633.81;5052636;28;20029;-75
2021/05/27 01:38:26;;;;;;;4.68;3.38;;;;;;;22.75;32.50;101636.16;5055529;28;20116;-75
2021/05/27 01:40:53;;;;;;;8.93;3.10;;;;;;;22.67;32.84;101638.03;5055429;28;20040;-75
2021/05/27 01:43:20;;;;;;;3.72;2.70;;;;;;;22.63;32.77;101633.56;5055445;28;20061;-75
2021/05/27 01:45:46;;;;;;;5.75;3.20;;;;;;;22.61;32.68;101638.72;5055375;28;20041;-75
2021/05/27 01:48:12;;;;;;;5.90;2.95;;;;;;;22.59;32.93;101629.91;5055364;28;20571;-76
2021/05/27 01:50:46;;;;;;;6.00;3.00;;;;;;;22.48;32.88;101640.88;5055318;28;20025;-76
2021/05/27 01:53:13;;;;;;;4.63;2.97;;;;;;;22.41;32.78;101640.78;5055276;28;20070;-80
2021/05/27 01:55:44;;;;;;;4.50;2.72;;;;;;;22.50;32.84;101644.09;5055216;28;20033;-75
2021/05/27 01:58:10;;;;;;;5.43;2.90;;;;;;;22.54;32.54;101638.59;5055233;28;20212;-78
2021/05/27 02:00:37;;;;;;;3.88;2.92;;;;;;;22.58;32.28;101639.44;5055122;28;20025;-75
2021/05/27 02:03:03;;;;;;;6.10;2.83;;;;;;;22.53;32.51;101635.03;5055030;28;20032;-76
2021/05/27 02:05:29;;;;;;;3.65;2.80;;;;;;;22.60;32.33;101637.91;5054969;28;20029;-75
2021/05/27 02:07:55;;;;;;;4.65;2.60;;;;;;;22.37;32.62;101637.94;5054993;28;20032;-75
2021/05/27 02:10:20;;;;;;;3.90;2.85;;;;;;;22.43;32.23;101635.63;5054933;28;20025;-76
2021/05/27 02:12:46;;;;;;;6.63;2.55;;;;;;;22.41;32.37;101638.78;5054937;28;20100;-76
2021/05/27 02:15:12;;;;;;;4.25;2.63;;;;;;;22.45;32.25;101638.88;5054805;28;20037;-75
2021/05/27 02:17:38;;;;;;;5.13;3.15;;;;;;;22.42;32.30;101650.72;5054876;28;20087;-75
2021/05/27 02:20:06;;;;;;;4.40;2.63;;;;;;;22.32;32.41;101643.81;5054739;28;20057;-75
2021/05/27 02:22:32;;;;;;;3.45;2.38;;;;;;;22.43;32.20;101636.44;5054625;28;20082;-80
2021/05/27 02:24:57;;;;;;;5.47;2.58;;;;;;;22.38;32.18;101638.75;5054720;28;20033;-76
2021/05/27 02:27:23;;;;;;;5.18;2.80;;;;;;;22.44;32.14;101640.00;5053130;28;20040;-75
2021/05/27 02:29:49;;;;;;;5.28;2.50;;;;;;;22.47;32.08;101642.06;5054586;28;20025;-76
2021/05/27 02:32:15;;;;;;;7.22;3.05;;;;;;;22.42;32.15;101645.16;5054591;28;20446;-76
2021/05/27 02:34:40;;;;;;;4.38;2.13;;;;;;;22.08;32.49;101644.19;5054483;28;20013;-75
2021/05/27 02:37:06;;;;;;;4.22;2.72;;;;;;;22.23;32.24;101640.47;5054495;28;20029;-75
2021/05/27 02:39:32;;;;;;;5.55;2.80;;;;;;;22.15;32.34;101639.53;5054397;28;20535;-75
2021/05/27 02:41:58;;;;;;;3.75;2.33;;;;;;;22.29;32.10;101635.38;5054302;28;20036;-76
2021/05/27 02:44:24;;;;;;;5.45;2.67;;;;;;;22.18;32.06;101639.97;5054381;28;20031;-75
2021/05/27 02:46:50;;;;;;;6.03;2.50;;;;;;;22.28;32.08;101639.34;5053634;28;20108;-76
2021/05/27 02:49:15;;;;;;;4.72;2.67;;;;;;;22.18;32.18;101629.63;5054044;28;20029;-75
2021/05/27 02:51:41;;;;;;;2.70;2.20;;;;;;;22.23;32.30;101639.69;5054133;28;20083;-75
2021/05/27 02:54:06;;;;;;;2.95;2.33;;;;;;;22.30;31.95;101642.59;5054161;28;20079;-77
2021/05/27 02:56:32;;;;;;;8.65;2.53;;;;;;;22.39;31.72;101645.91;5054178;28;20021;-75
2021/05/27 02:58:58;;;;;;;3.75;2.45;;;;;;;22.37;31.73;101642.72;5054032;28;20025;-75
2021/05/27 03:01:23;;;;;;;6.72;2.25;;;;;;;22.40;31.68;101647.53;5053954;28;20057;-76
2021/05/27 03:03:49;;;;;;;3.05;2.20;;;;;;;22.29;31.79;101652.09;5053943;28;20048;-75
2021/05/27 03:06:15;;;;;;;4.75;2.42;;;;;;;22.43;31.54;101655.91;5053809;28;20486;-76
2021/05/27 03:08:41;;;;;;;3.88;2.30;;;;;;;22.45;31.51;101652.78;5051324;28;20025;-75
2021/05/27 03:11:08;;;;;;;5.05;2.70;;;;;;;22.39;31.61;101651.47;5053537;28;20031;-75
2021/05/27 03:13:34;;;;;;;6.25;2.70;;;;;;;22.37;31.78;101659.41;5053689;28;20029;-76
2021/05/27 03:16:00;;;;;;;4.72;2.75;;;;;;;22.33;31.90;101655.75;5053685;28;20036;-75
2021/05/27 03:18:27;;;;;;;4.10;2.38;;;;;;;22.42;31.57;101656.31;5053656;28;20562;-75
2021/05/27 03:20:53;;;;;;;4.78;2.40;;;;;;;22.35;31.86;101650.59;5053571;28;20032;-76
2021/05/27 03:23:19;;;;;;;6.63;3.17;;;;;;;22.37;31.72;101660.22;5053604;28;20479;-75
2021/05/27 03:25:44;;;;;;;3.92;2.85;;;;;;;22.39;31.81;101651.47;5053434;28;20438;-75
2021/05/27 03:28:10;;;;;;;4.15;2.55;;;;;;;22.33;31.77;101658.53;5051913;28;20052;-75
2021/05/27 03:30:36;;;;;;;4.07;2.45;;;;;;;22.13;32.04;101649.41;5053431;28;20114;-75
2021/05/27 03:33:02;;;;;;;3.83;2.33;;;;;;;22.30;31.68;101659.28;5053330;28;20387;-76
2021/05/27 03:35:27;;;;;;;2.50;2.05;;;;;;;22.29;31.49;101655.69;5053371;28;20036;-76
2021/05/27 03:37:53;;;;;;;4.15;3.17;;;;;;;22.25;31.51;101654.03;5053325;28;20025;-75
2021/05/27 03:40:19;;;;;;;3.25;2.38;;;;;;;22.25;31.71;101662.38;5053294;28;20147;-77
2021/05/27 03:42:49;;;;;;;4.97;2.13;;;;;;;22.09;31.79;101666.06;5053172;28;20032;-79
2021/05/27 03:45:23;;;;;;;4.68;2.40;;;;;;;22.13;31.57;101666.91;5053127;28;20025;-76
2021/05/27 03:47:50;;;;;;;3.03;2.25;;;;;;;22.10;31.71;101664.88;5053192;28;20025;-75
2021/05/27 03:50:17;;;;;;;10.57;3.13;;;;;;;22.04;31.67;101669.13;5053122;28;20025;-75
2021/05/27 03:52:44;;;;;;;6.43;3.05;;;;;;;22.05;31.71;101670.72;5052972;28;20075;-75
2021/05/27 03:55:12;;;;;;;3.28;2.42;;;;;;;22.04;31.79;101668.31;5053019;28;20029;-76
2021/05/27 03:57:38;;;;;;;6.20;2.80;;;;;;;21.96;31.75;101672.94;5052990;28;20028;-75
2021/05/27 04:02:51;;;;;;;5.93;3.58;;;;;;;21.93;31.88;101667.31;5052885;28;20079;-75
2021/05/27 04:08:04;;;;;;;4.00;2.35;;;;;;;21.67;32.20;101666.00;5052794;28;20039;-75
2021/05/27 04:10:30;;;;;;;4.00;2.80;;;;;;;21.47;32.42;101662.41;5052796;28;20040;-75
2021/05/27 04:12:56;;;;;;;7.00;3.50;;;;;;;21.40;32.54;101665.06;5052727;28;20395;-76
2021/05/27 04:15:27;;;;;;;5.88;3.40;;;;;;;21.30;32.77;101671.16;5052670;28;20099;-75
2021/05/27 04:18:00;;;;;;;5.65;2.92;;;;;;;21.33;32.61;101665.69;5052695;28;20435;-76
2021/05/27 04:20:32;;;;;;;5.95;3.25;;;;;;;21.31;32.78;101670.00;5052613;28;20056;-75
2021/05/27 04:22:58;;;;;;;6.70;2.80;;;;;;;21.32;32.61;101666.88;5044681;28;20041;-76
2021/05/27 04:25:25;;;;;;;6.25;3.20;;;;;;;21.28;32.80;101665.16;5031765;28;20034;-76
2021/05/27 04:27:53;;;;;;;8.52;3.47;;;;;;;21.19;32.94;101673.69;5042964;28;20124;-75
2021/05/27 04:30:20;;;;;;;9.63;3.67;;;;;;;21.31;32.91;101670.81;5034491;28;20387;-75
2021/05/27 04:33:02;;;;;;;6.85;3.45;;;;;;;21.31;32.97;101672.78;5052028;28;20028;-75
2021/05/27 04:35:36;;;;;;;6.90;3.35;;;;;;;21.41;32.75;101666.66;5052447;28;20040;-75
2021/05/27 04:38:10;;;;;;;5.35;2.90;;;;;;;21.36;32.80;101666.13;5052393;28;20627;-78
2021/05/27 04:40:38;;;;;;;7.85;2.53;;;;;;;21.35;32.67;101676.44;5052528;28;20025;-76
2021/05/27 04:43:04;;;;;;;15.30;3.28;;;;;;;21.37;32.77;101676.06;5052452;28;20387;-76
2021/05/27 04:45:30;;;;;;;2.97;2.50;;;;;;;21.41;32.69;101675.00;5052246;28;20083;-76
2021/05/27 04:47:57;;;;;;;10.45;3.63;;;;;;;21.25;32.83;101677.00;5052318;28;20031;-76
2021/05/27 04:50:23;;;;;;;5.57;2.63;;;;;;;21.24;32.88;101672.59;5052340;28;20055;-79
2021/05/27 04:52:50;;;;;;;6.93;3.53;;;;;;;21.44;32.56;101671.47;5052303;28;20075;-77
2021/05/27 04:55:17;;;;;;;8.35;2.85;;;;;;;21.34;32.76;101677.63;5052268;28;20033;-77
2021/05/27 04:57:42;;;;;;;12.82;3.72;;;;;;;21.35;32.84;101676.44;5034290;28;20037;-76
2021/05/27 05:00:17;;;;;;;4.65;2.38;;;;;;;21.48;32.58;101686.28;5052215;28;20025;-76
2021/05/27 05:02:42;;;;;;;7.32;3.50;;;;;;;21.47;32.59;101679.09;5052167;28;20060;-77
2021/05/27 05:05:10;;;;;;;5.43;2.55;;;;;;;21.53;32.74;101685.16;5052127;28;20057;-76
2021/05/27 05:07:38;;;;;;;6.25;2.60;;;;;;;21.59;32.47;101684.50;5052077;28;20043;-79
2021/05/27 05:10:05;;;;;;;7.85;3.63;;;;;;;21.51;32.80;101684.72;5052768;28;20021;-76
2021/05/27 05:12:44;;;;;;;5.20;2.95;;;;;;;21.66;32.66;101691.41;5055973;28;20032;-76
2021/05/27 05:15:16;;;;;;;10.35;3.05;;;;;;;21.56;32.49;101693.59;5055982;28;20039;-76
2021/05/27 05:17:42;;;;;;;7.35;3.42;;;;;;;21.60;32.49;101690.88;5054867;28;20383;-76
2021/05/27 05:20:09;;;;;;;9.60;3.08;;;;;;;21.54;32.64;101690.38;5037319;28;20025;-76
2021/05/27 05:22:35;;;;;;;14.77;3.92;;;;;;;21.72;32.41;101690.75;5055833;28;20032;-77
2021/05/27 05:25:01;;;;;;;13.32;3.78;;;;;;;21.75;32.34;101684.44;5055814;28;20033;-76
2021/05/27 05:27:27;;;;;;;8.27;3.42;;;;;;;21.80;32.29;101686.13;5055215;28;20048;-76
2021/05/27 05:29:53;;;;;;;5.15;2.47;;;;;;;21.95;32.08;101690.81;5055662;28;20025;-76
2021/05/27 05:32:19;;;;;;;5.15;3.00;;;;;;;22.06;32.00;101688.22;5055774;28;20041;-76
2021/05/27 05:34:44;;;;;;;4.70;2.45;;;;;;;22.08;32.00;101692.28;5055622;28;20112;-76
2021/05/27 05:37:10;;;;;;;9.20;3.55;;;;;;;22.11;31.86;101690.75;5055541;28;20119;-76
2021/05/27 05:39:35;;;;;;;6.03;3.33;;;;;;;22.18;32.24;101690.88;5055548;28;20104;-76
2021/05/27 05:42:01;;;;;;;6.90;2.72;;;;;;;22.12;32.08;101692.34;5055558;28;20471;-76
2021/05/27 05:44:26;;;;;;;7.63;2.45;;;;;;;22.32;31.93;101687.56;5055471;28;20033;-80
2021/05/27 05:46:52;;;;;;;6.57;3.08;;;;;;;22.69;31.91;101687.78;5055358;28;20078;-80
2021/05/27 05:49:18;;;;;;;10.43;3.50;;;;;;;22.86;32.18;101692.06;5055364;28;20100;-76
2021/05/27 05:51:43;;;;;;;3.67;2.20;;;;;;;23.27;31.48;101687.50;5037421;28;20033;-77
2021/05/27 05:54:09;;;;;;;5.47;2.50;;;;;;;23.50;31.52;101699.41;5055185;28;20029;-77
2021/05/27 05:56:34;;;;;;;5.25;2.47;;;;;;;23.56;31.24;101696.25;5055198;28;20025;-77
2021/05/27 05:59:00;;;;;;;2.85;1.98;;;;;;;23.81;30.76;101700.22;5055210;28;20033;-76
2021/05/27 06:01:26;;;;;;;4.63;2.10;;;;;;;23.78;30.21;101707.34;5055073;28;20036;-77
2021/05/27 06:03:52;;;;;;;5.97;2.22;;;;;;;23.77;29.99;101702.94;5051133;28;20112;-80
2021/05/27 06:06:17;;;;;;;6.95;2.53;;;;;;;23.81;29.84;101703.00;5046863;28;20041;-79
2021/05/27 06:08:43;;;;;;;5.05;2.28;;;;;;;23.77;29.98;101702.94;5030320;28;20039;-80
2021/05/27 06:11:09;;;;;;;8.05;2.50;;;;;;;23.71;29.92;101720.41;5045438;28;20159;-78
2021/05/27 06:13:34;;;;;;;6.82;3.00;;;;;;;23.49;30.14;101697.78;5046698;28;20096;-79
2021/05/27 06:16:00;;;;;;;6.38;2.03;;;;;;;23.50;30.17;101693.00;5039309;28;20040;-77
2021/05/27 06:18:26;;;;;;;10.68;2.95;;;;;;;23.57;30.31;101703.44;5062607;28;20070;-78
2021/05/27 06:20:51;;;;;;;12.32;3.70;;;;;;;23.64;30.09;101698.78;5063451;28;20423;-77
2021/05/27 06:23:17;;;;;;;13.05;2.92;;;;;;;23.70;29.94;101696.47;5060642;28;20403;-79
2021/05/27 06:25:43;;;;;;;7.40;2.78;;;;;;;23.82;30.10;101687.06;5058742;28;20020;-77
2021/05/27 06:28:08;;;;;;;7.07;2.58;;;;;;;23.79;29.88;101686.63;5058495;28;20494;-77
2021/05/27 06:30:34;;;;;;;4.05;1.80;;;;;;;23.92;29.92;101686.38;5057902;28;20025;-78
2021/05/27 06:33:01;;;;;;;4.20;2.05;;;;;;;24.02;29.76;101680.09;5060291;28;20052;-76
2021/05/27 06:35:27;;;;;;;14.02;3.80;;;;;;;24.14;29.28;101682.63;5059129;28;20039;-77
2021/05/27 06:37:53;;;;;;;4.45;2.30;;;;;;;24.33;28.97;101690.84;5054218;28;20463;-81
2021/05/27 06:40:22;;;;;;;7.30;2.47;;;;;;;24.30;29.06;101685.97;5059352;28;20067;-80
2021/05/27 06:42:48;;;;;;;4.65;2.00;;;;;;;24.41;28.89;101685.28;5064478;28;20379;-81
2021/05/27 06:45:15;;;;;;;6.03;1.70;;;;;;;24.58;28.23;101691.06;5064330;28;20475;-78
2021/05/27 06:47:41;;;;;;;4.68;1.80;;;;;;;24.61;28.19;101693.06;5063074;28;20078;-76
2021/05/27 06:50:07;;;;;;;17.40;3.10;;;;;;;24.71;28.15;101688.78;5062886;28;20024;-81
2021/05/27 06:52:33;;;;;;;13.93;2.90;;;;;;;24.78;28.07;101688.81;5061786;28;20025;-81
2021/05/27 06:54:59;;;;;;;9.68;2.75;;;;;;;24.94;27.77;101696.09;5046969;28;20036;-81
2021/05/27 06:57:25;;;;;;;7.90;2.67;;;;;;;25.01;27.78;101696.16;5062254;28;20040;-80
2021/05/27 06:59:50;;;;;;;6.78;1.92;;;;;;;24.99;28.15;101701.34;5059426;28;20021;-80
2021/05/27 07:02:17;;;;;;;4.38;1.65;;;;;;;25.16;27.57;101704.31;5064112;28;20024;-81
2021/05/27 07:04:45;;;;;;;12.52;2.92;;;;;;;25.23;27.57;101709.13;5057841;28;20017;-81
2021/05/27 07:07:10;;;;;;;8.20;2.47;;;;;;;25.33;27.88;101702.00;5059737;28;20100;-80
2021/05/27 07:09:39;;;;;;;4.00;1.92;;;;;;;25.45;28.17;101704.47;5061742;28;20039;-81
2021/05/27 07:12:06;;;;;;;4.63;1.48;;;;;;;25.54;28.23;101709.69;5052601;28;20025;-82
2021/05/27 07:14:32;;;;;;;8.02;2.92;;;;;;;25.55;28.28;101711.31;5051283;28;20472;-77
2021/05/27 07:16:58;;;;;;;39.92;7.07;;;;;;;25.56;28.46;101702.53;5052752;28;20021;-77
2021/05/27 07:19:23;;;;;;;28.55;5.50;;;;;;;25.53;28.37;101708.09;5051717;28;20535;-81
2021/05/27 07:21:49;;;;;;;9.90;2.33;;;;;;;25.55;28.28;101712.13;5067365;28;20029;-80
2021/05/27 07:24:14;;;;;;;9.45;2.50;;;;;;;25.60;28.23;101713.72;5053083;28;20036;-82
2021/05/27 07:26:40;;;;;;;9.23;3.40;;;;;;;25.67;28.15;101719.34;5053372;28;20037;-79
2021/05/27 07:29:06;;;;;;;10.88;2.97;;;;;;;25.70;28.16;101718.59;5053573;28;20043;-83
2021/05/27 07:31:33;;;;;;;6.22;2.58;;;;;;;25.72;27.90;101713.41;5052918;28;20032;-78
2021/05/27 07:33:59;;;;;;;11.52;2.72;;;;;;;25.55;27.96;101720.50;5019760;28;20423;-84
2021/05/27 07:36:25;;;;;;;9.43;2.47;;;;;;;25.60;28.13;101728.50;5037860;28;20114;-79
2021/05/27 07:38:52;;;;;;;8.98;2.80;;;;;;;25.72;27.90;101714.22;5035380;28;20132;-80
2021/05/27 07:41:17;;;;;;;4.72;1.90;;;;;;;25.87;27.41;101717.06;5040034;28;20037;-79
2021/05/27 07:43:43;;;;;;;18.70;4.20;;;;;;;26.03;27.55;101722.34;5064070;28;20025;-82
2021/05/27 07:46:08;;;;;;;17.15;3.47;;;;;;;25.95;27.59;101727.09;5054702;28;20078;-81
2021/05/27 07:48:34;;;;;;;14.93;2.70;;;;;;;26.10;27.56;101722.34;5065193;28;20660;-80
2021/05/27 07:51:00;;;;;;;6.65;2.28;;;;;;;26.15;27.58;101730.38;5038926;28;20033;-79
2021/05/27 07:53:26;;;;;;;14.52;2.90;;;;;;;26.08;27.91;101725.56;5041919;28;20032;-81
2021/05/27 07:55:52;;;;;;;18.20;4.28;;;;;;;26.19;27.84;101731.16;5036103;28;20043;-81
2021/05/27 07:58:17;;;;;;;8.68;2.38;;;;;;;26.29;27.63;101724.78;5041392;28;20033;-84
2021/05/27 08:00:43;;;;;;;6.55;1.95;;;;;;;26.35;27.27;101728.81;5052397;28;20031;-79
2021/05/27 08:03:09;;;;;;;4.95;1.92;;;;;;;26.33;27.40;101728.41;5053038;28;20029;-85
2021/05/27 08:05:35;;;;;;;7.38;2.55;;;;;;;26.47;27.14;101727.66;5034816;28;20441;-84
2021/05/27 08:08:01;;;;;;;52.40;6.70;;;;;;;26.46;26.95;101735.28;5055080;28;20040;-81
2021/05/27 08:10:26;;;;;;;4.35;1.85;;;;;;;26.32;27.35;101740.00;5060515;28;20044;-80
2021/05/27 08:12:52;;;;;;;8.25;2.63;;;;;;;26.21;27.35;101748.38;5062876;28;20025;-84
2021/05/27 08:15:18;;;;;;;6.82;2.13;;;;;;;26.25;27.18;101752.00;5038592;28;20021;-84
2021/05/27 08:17:43;;;;;;;12.93;2.60;;;;;;;26.34;27.13;101752.41;5056207;28;20028;-80
2021/05/27 08:20:10;;;;;;;2.00;1.27;;;;;;;26.30;27.53;101743.22;5063005;28;20028;-79
2021/05/27 08:22:37;;;;;;;6.05;1.80;;;;;;;26.14;27.95;101751.16;5032061;28;20393;-79
2021/05/27 08:25:03;;;;;;;2.90;1.40;;;;;;;26.35;28.09;101745.63;5031321;28;20029;-80
2021/05/27 08:27:30;;;;;;;6.03;2.20;;;;;;;26.35;27.96;101745.63;5030607;28;20049;-80
2021/05/27 08:29:56;;;;;;;3.30;1.90;;;;;;;26.34;28.41;101746.00;5030825;28;20508;-84
2021/05/27 08:32:22;;;;;;;5.75;1.63;;;;;;;26.27;28.58;101749.59;5031088;28;20536;-82
2021/05/27 08:34:48;;;;;;;6.82;1.90;;;;;;;26.47;28.14;101742.47;5031111;28;20083;-80
2021/05/27 08:37:13;;;;;;;11.98;2.72;;;;;;;26.34;28.68;101748.81;5031101;28;20036;-79
2021/05/27 08:39:39;;;;;;;2.75;1.55;;;;;;;26.36;27.95;101747.22;5032538;28;20464;-85
2021/05/27 08:42:05;;;;;;;6.60;1.60;;;;;;;26.47;27.53;101745.28;5032559;28;20037;-85
2021/05/27 08:44:35;;;;;;;4.97;2.08;;;;;;;26.47;27.30;101745.28;5032398;28;20068;-79
2021/05/27 08:47:01;;;;;;;6.75;2.03;;;;;;;26.47;27.13;101742.47;5050539;28;20056;-83
2021/05/27 08:49:28;;;;;;;5.63;1.98;;;;;;;26.36;26.69;101744.41;5038469;28;20448;-79
2021/05/27 08:51:54;;;;;;;6.65;2.50;;;;;;;26.63;26.44;101742.09;5056307;28;20111;-80
2021/05/27 08:54:20;;;;;;;2.25;1.77;;;;;;;26.57;26.55;101749.28;5056615;28;20104;-79
2021/05/27 08:56:45;;;;;;;3.45;2.15;;;;;;;26.90;26.20;101748.09;5056421;28;20045;-78
2021/05/27 08:59:11;;;;;;;5.72;1.48;;;;;;;26.59;26.43;101744.06;5056430;28;20029;-80
2021/05/27 09:02:07;;;;;;;3.45;2.13;;;;;;;26.28;26.83;101754.78;5056485;28;20063;-86
2021/05/27 09:04:33;;;;;;;8.75;2.28;;;;;;;26.75;27.03;101752.91;5056246;28;20025;-79
2021/05/27 09:07:00;;;;;;;4.18;2.17;;;;;;;26.64;27.60;101745.69;5055876;28;20124;-80
2021/05/27 09:09:50;;;;;;;8.80;2.67;;;;;;;26.59;27.95;101754.47;5056167;28;20032;-80
2021/05/27 09:12:25;;;;;;;;;;;;;;;26.58;28.74;101758.50;5056602;28;20025;-80
2021/05/27 09:14:50;;;;;;;3.38;1.92;;;;;;;26.83;27.99;101759.34;5056040;28;20348;-79
2021/05/27 09:17:16;;;;;;;5.78;2.00;;;;;;;26.68;28.33;101761.31;5054448;28;20025;-79
2021/05/27 09:19:41;;;;;;;3.35;1.70;;;;;;;26.67;28.57;101750.47;5055979;28;20065;-79
2021/05/27 09:22:27;;;;;;;7.13;2.08;;;;;;;26.72;28.27;101747.28;5056038;28;20029;-85
2021/05/27 09:24:53;;;;;;;5.47;2.17;;;;;;;26.86;28.27;101755.72;5055429;28;20041;-79
2021/05/27 09:27:45;;;;;;;8.18;2.63;;;;;;;26.83;28.02;101753.72;5055739;28;20110;-79
2021/05/27 09:30:12;;;;;;;8.15;2.55;;;;;;;26.84;28.32;101749.72;5055763;28;20029;-80
2021/05/27 09:32:47;;;;;;;4.97;2.22;;;;;;;26.74;28.39;101751.28;5055579;28;20024;-79
2021/05/27 09:35:14;;;;;;;3.70;2.03;;;;;;;27.04;27.69;101752.91;5055832;28;20043;-79
2021/05/27 09:37:47;;;;;;;2.97;1.80;;;;;;;27.13;27.72;101744.94;5055791;28;20021;-79
2021/05/27 09:40:28;;;;;;;23.52;4.40;;;;;;;27.11;27.61;101752.91;5055738;28;20033;-84
2021/05/27 09:42:53;;;;;;;5.55;1.85;;;;;;;27.15;27.57;101750.91;5055592;28;20033;-79
2021/05/27 09:45:20;;;;;;;2.13;1.55;;;;;;;26.98;27.05;101744.09;5054992;28;20114;-80
2021/05/27 09:47:45;;;;;;;5.22;1.45;;;;;;;27.15;26.39;101744.50;5054595;28;20056;-80
2021/05/27 09:50:12;;;;;;;5.30;2.00;;;;;;;27.56;25.78;101744.81;5055413;28;20064;-80
2021/05/27 09:52:43;;;;;;;7.40;2.50;;;;;;;27.41;26.63;101749.66;5036971;28;20060;-79
2021/05/27 09:55:21;;;;;;;5.00;1.92;;;;;;;27.42;26.93;101742.03;5054674;28;20032;-84
2021/05/27 09:57:48;;;;;;;4.15;1.55;;;;;;;27.21;26.77;101754.13;5055050;28;20086;-80
2021/05/27 10:00:22;;;;;;;2.55;1.48;;;;;;;27.53;26.36;101743.63;5055151;28;20033;-84
2021/05/27 10:02:49;;;;;;;4.00;1.60;;;;;;;27.61;26.04;101735.97;5055143;28;20053;-81
2021/05/27 10:05:15;;;;;;;6.68;1.40;;;;;;;27.47;25.96;101742.44;5055059;28;20025;-80
2021/05/27 10:07:48;;;;;;;2.28;1.30;;;;;;;27.49;26.36;101739.22;5055071;28;20471;-84
2021/05/27 10:10:33;;;;;;;4.47;1.40;;;;;;;27.09;26.47;101741.31;5055095;28;20025;-80
2021/05/27 10:12:59;;;;;;;2.83;1.65;;;;;;;27.44;26.85;101736.84;5055096;28;20438;-85
2021/05/27 10:15:25;;;;;;;8.68;1.65;;;;;;;27.37;27.33;101738.47;5053923;28;20025;-83
2021/05/27 10:17:53;;;;;;;1.20;1.10;;;;;;;27.15;27.95;101747.31;5054281;28;20113;-80
2021/05/27 10:20:21;;;;;;;3.25;1.80;;;;;;;27.44;27.49;101748.88;5054982;28;20029;-84
2021/05/27 10:22:48;;;;;;;5.15;2.75;;;;;;;27.29;28.06;101747.31;5055251;28;20028;-80
2021/05/27 10:25:17;;;;;;;3.38;1.55;;;;;;;27.33;27.84;101745.28;5042456;28;20108;-85
2021/05/27 10:27:46;;;;;;;4.72;1.75;;;;;;;27.33;28.23;101736.84;5044644;28;20487;-85
2021/05/27 10:30:14;;;;;;;11.70;1.90;;;;;;;27.46;27.95;101735.22;5041224;28;20091;-82
2021/05/27 10:32:46;;;;;;;5.10;1.65;;;;;;;27.37;28.09;101727.22;5037502;28;20021;-81
2021/05/27 10:35:12;;;;;;;8.27;2.67;;;;;;;27.57;28.04;101729.56;5036994;28;20167;-81
2021/05/27 10:37:38;;;;;;;8.52;2.55;;;;;;;27.69;27.56;101725.56;5020780;28;20040;-86
2021/05/27 10:40:32;;;;;;;4.53;1.73;;;;;;;27.92;26.82;101723.84;5037526;28;20029;-86
2021/05/27 10:43:32;;;;;;;6.60;1.88;;;;;;;28.25;26.32;101730.06;5037177;28;20696;-80
2021/05/27 10:46:00;;;;;;;3.67;1.35;;;;;;;28.17;26.00;101723.69;5033728;28;20146;-81
2021/05/27 10:48:26;;;;;;;6.50;1.50;;;;;;;28.32;25.52;101724.44;5037269;28;20033;-80
2021/05/27 10:51:03;;;;;;;9.15;1.73;;;;;;;28.33;25.28;101733.66;5036153;28;20387;-81
2021/05/27 10:56:03;;;;;;;2.40;1.38;;;;;;;28.42;24.52;101728.41;5039275;28;20033;-86
2021/05/27 10:58:52;;;;;;;4.15;1.77;;;;;;;28.56;24.19;101733.91;5039778;28;20029;-84
2021/05/27 11:01:19;;;;;;;6.82;1.83;;;;;;;28.59;25.04;101732.28;5045980;28;20021;-85
2021/05/27 11:03:49;;;;;;;4.72;1.77;;;;;;;28.74;25.12;101728.94;5042485;28;20056;-84
2021/05/27 11:06:24;;;;;;;;;;;;;;;28.23;25.30;101726.09;5036417;28;20525;-79
2021/05/27 11:09:11;;;;;;;6.32;1.80;;;;;;;28.20;25.22;101733.34;5053289;28;19920;-79
2021/05/27 11:11:42;;;;;;;6.57;2.00;;;;;;;28.53;24.78;101743.16;5028023;28;20029;-85
2021/05/27 11:14:34;;;;;;;4.85;2.08;;;;;;;28.68;24.43;101741.06;5044038;28;20478;-82
2021/05/27 11:17:03;;;;;;;3.03;1.50;;;;;;;28.86;24.52;101736.06;5041059;28;20059;-81
2021/05/27 11:25:29;;;;;;;2.53;1.27;;;;;;;28.69;25.44;101743.44;5015539;28;20033;-80
2021/05/27 11:28:23;;;;;;;5.38;2.10;;;;;;;28.65;25.33;101744.72;5036306;28;20045;-86
2021/05/27 11:30:53;;;;;;;7.07;2.90;;;;;;;28.89;25.15;101735.25;5015776;28;20038;-84
2021/05/27 11:33:18;;;;;;;4.88;1.30;;;;;;;29.01;25.01;101731.94;5033496;28;20037;-83
2021/05/27 11:35:46;;;;;;;4.07;1.67;;;;;;;29.01;24.23;101731.13;5039994;28;20033;-84
2021/05/27 11:38:15;;;;;;;3.53;1.13;;;;;;;28.81;23.99;101727.28;5023913;28;20433;-81
2021/05/27 11:40:51;;;;;;;9.15;1.35;;;;;;;28.35;23.92;101725.66;5041390;28;20048;-71